createdAt,value
2022-09-20T00:01:08.520Z,100.00
2022-09-20T00:03:36.622Z,100.00
2022-09-20T00:06:05.161Z,100.00
2022-09-20T00:08:31.879Z,100.00
2022-09-20T00:11:10.549Z,100.00
2022-09-20T00:13:39.028Z,100.00
2022-09-20T00:16:14.219Z,100.00
2022-09-20T00:18:41.235Z,100.00
2022-09-20T00:21:12.317Z,100.00
2022-09-20T00:23:38.672Z,100.00
2022-09-20T00:26:05.183Z,100.00
2022-09-20T00:28:33.234Z,100.00
2022-09-20T00:31:00.756Z,100.00
2022-09-20T00:33:47.204Z,100.00
2022-09-20T00:36:13.632Z,100.00
2022-09-20T00:38:40.116Z,100.00
2022-09-20T00:41:06.653Z,100.00
2022-09-20T00:43:44.681Z,100.00
2022-09-20T00:46:23.127Z,100.00
2022-09-20T00:48:55.824Z,100.00
2022-09-20T00:51:29.822Z,100.00
2022-09-20T00:53:58.783Z,100.00
2022-09-20T00:56:39.179Z,100.00
2022-09-20T00:59:17.053Z,100.00
2022-09-20T01:01:46.323Z,100.00
2022-09-20T01:04:14.793Z,100.00
2022-09-20T01:06:44.763Z,100.00
2022-09-20T01:09:11.138Z,100.00
2022-09-20T01:11:39.115Z,100.00
2022-09-20T01:14:05.707Z,100.00
2022-09-20T01:16:34.159Z,100.00
2022-09-20T01:19:05.697Z,100.00
2022-09-20T01:21:32.602Z,100.00
2022-09-20T01:24:09.043Z,100.00
2022-09-20T01:27:00.504Z,100.00
2022-09-20T01:29:39.151Z,100.00
2022-09-20T01:32:11.695Z,100.00
2022-09-20T01:34:48.207Z,100.00
2022-09-20T01:37:19.234Z,100.00
2022-09-20T01:39:54.053Z,100.00
2022-09-20T01:42:26.211Z,100.00
2022-09-20T01:45:01.349Z,100.00
2022-09-20T01:47:44.295Z,100.00
2022-09-20T01:50:33.607Z,100.00
2022-09-20T01:53:17.343Z,100.00
2022-09-20T01:56:03.668Z,100.00
2022-09-20T01:59:23.087Z,100.00
2022-09-20T02:01:53.151Z,100.00
2022-09-20T02:04:22.239Z,100.00
2022-09-20T02:07:10.427Z,100.00
2022-09-20T02:09:45.829Z,100.00
2022-09-20T02:12:43.888Z,100.00
2022-09-20T02:15:25.153Z,100.00
2022-09-20T02:18:24.933Z,100.00
2022-09-20T02:21:03.659Z,100.00
2022-09-20T02:23:48.552Z,100.00
2022-09-20T02:26:39.162Z,100.00
2022-09-20T02:29:23.781Z,100.00
2022-09-20T02:31:59.600Z,100.00
2022-09-20T02:34:51.947Z,100.00
2022-09-20T02:37:36.908Z,100.00
2022-09-20T02:40:32.126Z,100.00
2022-09-20T02:43:16.251Z,100.00
2022-09-20T02:46:04.815Z,100.00
2022-09-20T02:49:00.507Z,100.00
2022-09-20T02:51:35.568Z,100.00
2022-09-20T02:54:29.529Z,100.00
2022-09-20T02:57:04.315Z,100.00
2022-09-20T02:59:44.405Z,100.00
2022-09-20T03:02:31.078Z,100.00
2022-09-20T03:05:32.076Z,100.00
2022-09-20T03:08:33.322Z,100.00
2022-09-20T03:11:08.512Z,100.00
2022-09-20T03:14:00.672Z,100.00
2022-09-20T03:16:42.365Z,100.00
2022-09-20T03:19:48.319Z,100.00
2022-09-20T03:22:53.346Z,100.00
2022-09-20T03:25:57.496Z,100.00
2022-09-20T03:28:56.184Z,100.00
2022-09-20T03:31:22.523Z,100.00
2022-09-20T03:34:20.655Z,100.00
2022-09-20T03:37:05.802Z,100.00
2022-09-20T03:39:44.823Z,100.00
2022-09-20T03:42:16.460Z,100.00
2022-09-20T03:44:58.723Z,100.00
2022-09-20T03:47:46.508Z,100.00
2022-09-20T03:50:51.553Z,100.00
2022-09-20T03:53:55.752Z,100.00
2022-09-20T03:56:32.451Z,100.00
2022-09-20T03:59:26.881Z,100.00
2022-09-20T04:02:34.628Z,100.00
2022-09-20T04:05:06.377Z,100.00
2022-09-20T04:07:35.721Z,100.00
2022-09-20T04:10:24.331Z,100.00
2022-09-20T04:12:53.507Z,100.00
2022-09-20T04:15:30.205Z,100.00
2022-09-20T04:18:30.613Z,100.00
2022-09-20T04:21:17.029Z,100.00
2022-09-20T04:24:25.276Z,100.00
2022-09-20T04:27:05.987Z,100.00
2022-09-20T04:29:48.093Z,100.00
2022-09-20T04:32:19.418Z,100.00
2022-09-20T04:35:18.402Z,100.00
2022-09-20T04:37:45.243Z,100.00
2022-09-20T04:40:15.876Z,100.00
2022-09-20T04:43:03.981Z,100.00
2022-09-20T04:45:52.155Z,100.00
2022-09-20T04:48:38.061Z,100.00
2022-09-20T04:51:45.745Z,100.00
2022-09-20T04:54:24.966Z,100.00
2022-09-20T04:57:10.482Z,100.00
2022-09-20T05:00:02.435Z,100.00
2022-09-20T05:02:50.458Z,100.00
2022-09-20T05:05:25.822Z,100.00
2022-09-20T05:08:20.718Z,100.00
2022-09-20T05:10:53.087Z,100.00
2022-09-20T05:13:28.437Z,100.00
2022-09-20T05:16:01.687Z,100.00
2022-09-20T05:18:43.114Z,100.00
2022-09-20T05:21:32.527Z,100.00
2022-09-20T05:24:17.049Z,100.00
2022-09-20T05:26:46.885Z,100.00
2022-09-20T05:29:47.107Z,100.00
2022-09-20T05:32:44.238Z,100.00
2022-09-20T05:35:13.700Z,100.00
2022-09-20T05:38:03.009Z,100.00
2022-09-20T05:40:35.202Z,100.00
2022-09-20T05:43:13.013Z,100.00
2022-09-20T05:46:05.392Z,100.00
2022-09-20T05:49:01.311Z,100.00
2022-09-20T05:51:42.301Z,100.00
2022-09-20T05:54:36.213Z,100.00
2022-09-20T05:57:24.286Z,100.00
2022-09-20T06:00:02.539Z,100.00
2022-09-20T06:02:51.118Z,100.00
2022-09-20T06:05:33.555Z,100.00
2022-09-20T06:08:17.807Z,100.00
2022-09-20T06:11:06.088Z,100.00
2022-09-20T06:13:41.281Z,100.00
2022-09-20T06:16:17.092Z,100.00
2022-09-20T06:19:14.968Z,100.00
2022-09-20T06:21:49.957Z,100.00
2022-09-20T06:24:48.227Z,100.00
2022-09-20T06:27:30.019Z,100.00
2022-09-20T06:30:00.419Z,100.00
2022-09-20T06:32:27.233Z,100.00
2022-09-20T06:34:54.723Z,100.00
2022-09-20T06:38:02.640Z,100.00
2022-09-20T06:40:55.208Z,100.00
2022-09-20T06:43:21.624Z,100.00
2022-09-20T06:45:48.511Z,100.00
2022-09-20T06:48:15.563Z,100.00
2022-09-20T06:50:45.612Z,100.00
2022-09-20T06:53:16.880Z,100.00
2022-09-20T06:55:45.080Z,100.00
2022-09-20T06:58:11.791Z,100.00
2022-09-20T07:00:39.760Z,100.00
2022-09-20T07:03:07.016Z,100.00
2022-09-20T07:05:33.391Z,100.00
2022-09-20T07:08:01.081Z,100.00
2022-09-20T07:10:28.258Z,100.00
2022-09-20T07:12:59.414Z,100.00
2022-09-20T07:15:32.416Z,100.00
2022-09-20T07:18:00.231Z,100.00
2022-09-20T07:20:27.352Z,100.00
2022-09-20T07:22:53.751Z,100.00
2022-09-20T07:25:21.583Z,100.00
2022-09-20T07:27:50.302Z,100.00
2022-09-20T07:30:18.603Z,100.00
2022-09-20T07:32:45.155Z,100.00
2022-09-20T07:35:12.879Z,100.00
2022-09-20T07:37:42.087Z,100.00
2022-09-20T07:40:10.810Z,100.00
2022-09-20T07:42:37.704Z,100.00
2022-09-20T07:45:04.695Z,100.00
2022-09-20T07:47:35.381Z,100.00
2022-09-20T07:50:02.972Z,100.00
2022-09-20T07:52:29.360Z,100.00
2022-09-20T07:54:56.229Z,100.00
2022-09-20T07:57:22.647Z,100.00
2022-09-20T07:59:49.015Z,100.00
2022-09-20T08:02:16.404Z,100.00
2022-09-20T08:04:43.367Z,100.00
2022-09-20T08:07:10.436Z,100.00
2022-09-20T08:09:36.866Z,100.00
2022-09-20T08:14:52.386Z,100.00
2022-09-20T08:17:19.499Z,100.00
2022-09-20T08:19:45.910Z,100.00
2022-09-20T08:22:12.621Z,100.00
2022-09-20T08:24:39.419Z,100.00
2022-09-20T08:27:05.887Z,100.00
2022-09-20T08:29:32.795Z,100.00
2022-09-20T08:32:01.100Z,100.00
2022-09-20T08:34:27.612Z,100.00
2022-09-20T08:36:56.474Z,100.00
2022-09-20T08:42:24.828Z,100.00
2022-09-20T08:45:02.007Z,100.00
2022-09-20T08:47:28.303Z,100.00
2022-09-20T08:49:58.314Z,100.00
2022-09-20T08:52:35.836Z,100.00
2022-09-20T08:55:12.464Z,100.00
2022-09-20T08:57:39.009Z,100.00
2022-09-20T09:00:06.931Z,100.00
2022-09-20T09:02:34.355Z,100.00
2022-09-20T09:05:03.099Z,100.00
2022-09-20T09:07:29.512Z,100.00
2022-09-20T09:09:56.633Z,100.00
2022-09-20T09:12:29.775Z,100.00
2022-09-20T09:15:03.868Z,100.00
2022-09-20T09:17:31.437Z,100.00
2022-09-20T09:20:00.219Z,100.00
2022-09-20T09:22:39.579Z,100.00
2022-09-20T09:25:16.832Z,100.00
2022-09-20T09:27:53.953Z,100.00
2022-09-20T09:30:32.264Z,100.00
2022-09-20T09:33:28.168Z,100.00
2022-09-20T09:36:21.628Z,100.00
2022-09-20T09:38:48.402Z,100.00
2022-09-20T09:41:17.612Z,100.00
2022-09-20T09:43:45.477Z,100.00
2022-09-20T09:46:26.238Z,100.00
2022-09-20T09:49:17.184Z,100.00
2022-09-20T09:52:04.891Z,100.00
2022-09-20T09:54:36.052Z,100.00
2022-09-20T09:57:15.914Z,100.00
2022-09-20T09:59:59.395Z,100.00
2022-09-20T10:03:03.845Z,100.00
2022-09-20T10:05:41.916Z,100.00
2022-09-20T10:08:46.999Z,100.00
2022-09-20T10:11:38.203Z,100.00
2022-09-20T10:14:35.357Z,100.00
2022-09-20T10:17:16.747Z,100.00
2022-09-20T10:20:06.501Z,100.00
2022-09-20T10:23:26.509Z,100.00
2022-09-20T10:26:03.164Z,100.00
2022-09-20T10:29:13.314Z,100.00
2022-09-20T10:32:00.347Z,100.00
2022-09-20T10:34:56.324Z,100.00
2022-09-20T10:37:32.146Z,100.00
2022-09-20T10:40:55.075Z,100.00
2022-09-20T10:44:05.954Z,100.00
2022-09-20T10:46:40.909Z,100.00
2022-09-20T10:49:40.794Z,100.00
2022-09-20T10:52:29.114Z,100.00
2022-09-20T10:55:04.615Z,100.00
2022-09-20T10:57:37.009Z,100.00
2022-09-20T11:00:20.504Z,100.00
2022-09-20T11:03:18.911Z,100.00
2022-09-20T11:06:11.437Z,100.00
2022-09-20T11:08:38.324Z,100.00
2022-09-20T11:11:13.169Z,100.00
2022-09-20T11:14:08.871Z,100.00
2022-09-20T11:17:00.570Z,100.00
2022-09-20T11:19:42.792Z,100.00
2022-09-20T11:22:15.182Z,100.00
2022-09-20T11:24:47.828Z,100.00
2022-09-20T11:27:32.608Z,100.00
2022-09-20T11:30:01.972Z,100.00
2022-09-20T11:32:45.417Z,100.00
2022-09-20T11:35:11.728Z,100.00
2022-09-20T11:37:44.515Z,100.00
2022-09-20T11:40:17.372Z,100.00
2022-09-20T11:42:44.372Z,100.00
2022-09-20T11:45:13.516Z,100.00
2022-09-20T11:47:54.970Z,100.00
2022-09-20T11:50:47.583Z,100.00
2022-09-20T11:53:35.836Z,100.00
2022-09-20T11:56:32.164Z,100.00
2022-09-20T11:59:01.308Z,100.00
2022-09-20T12:01:47.977Z,100.00
2022-09-20T12:04:33.900Z,100.00
2022-09-20T12:07:17.840Z,100.00
2022-09-20T12:09:51.943Z,100.00
2022-09-20T12:12:36.547Z,100.00
2022-09-20T12:15:07.897Z,100.00
2022-09-20T12:17:46.397Z,100.00
2022-09-20T12:20:34.883Z,100.00
2022-09-20T12:23:38.532Z,100.00
2022-09-20T12:26:10.975Z,100.00
2022-09-20T12:28:42.600Z,100.00
2022-09-20T12:31:18.292Z,100.00
2022-09-20T12:34:13.184Z,100.00
2022-09-20T12:36:45.047Z,100.00
2022-09-20T12:39:11.354Z,100.00
2022-09-20T12:41:58.746Z,100.00
2022-09-20T12:44:25.047Z,100.00
2022-09-20T12:46:57.065Z,100.00
2022-09-20T12:49:48.142Z,100.00
2022-09-20T12:52:49.808Z,100.00
2022-09-20T12:55:35.045Z,100.00
2022-09-20T12:58:14.248Z,100.00
2022-09-20T13:00:46.776Z,100.00
2022-09-20T13:03:24.900Z,100.00
2022-09-20T13:06:14.855Z,98.18
2022-09-20T13:08:51.200Z,100.00
2022-09-20T13:11:23.056Z,100.00
2022-09-20T13:13:50.470Z,100.00
2022-09-20T13:16:22.689Z,100.00
2022-09-20T13:19:05.506Z,100.00
2022-09-20T13:21:34.833Z,100.00
2022-09-20T13:24:02.260Z,100.00
2022-09-20T13:26:35.936Z,100.00
2022-09-20T13:29:04.629Z,100.00
2022-09-20T13:31:33.635Z,100.00
2022-09-20T13:34:20.814Z,100.00
2022-09-20T13:36:51.882Z,100.00
2022-09-20T13:39:38.612Z,100.00
2022-09-20T13:42:11.582Z,100.00
2022-09-20T13:44:38.877Z,100.00
2022-09-20T13:47:44.323Z,100.00
2022-09-20T13:50:34.654Z,100.00
2022-09-20T13:53:03.339Z,100.00
2022-09-20T13:55:39.701Z,100.00
2022-09-20T13:58:09.697Z,100.00
2022-09-20T14:00:38.386Z,100.00
2022-09-20T14:03:05.198Z,100.00
2022-09-20T14:05:31.841Z,100.00
2022-09-20T14:08:00.541Z,100.00
2022-09-20T14:10:30.982Z,100.00
2022-09-20T14:13:01.068Z,100.00
2022-09-20T14:15:33.438Z,100.00
2022-09-20T14:18:01.284Z,100.00
2022-09-20T14:20:27.784Z,99.66
2022-09-20T14:22:59.026Z,99.25
2022-09-20T14:25:27.372Z,97.54
2022-09-20T14:28:19.484Z,91.40
2022-09-20T14:30:47.649Z,86.75
2022-09-20T14:33:18.496Z,82.82
2022-09-20T14:35:51.983Z,74.69
2022-09-20T14:38:24.052Z,79.45
2022-09-20T14:40:51.831Z,81.17
2022-09-20T14:43:26.265Z,78.22
2022-09-20T14:45:56.079Z,80.02
2022-09-20T14:48:22.462Z,80.38
2022-09-20T14:51:17.885Z,77.49
2022-09-20T14:53:53.019Z,83.87
2022-09-20T14:56:38.200Z,82.00
2022-09-20T14:59:09.279Z,85.46
2022-09-20T15:01:38.937Z,82.47
2022-09-20T15:04:25.847Z,78.12
2022-09-20T15:06:53.121Z,81.09
2022-09-20T15:09:20.930Z,79.87
2022-09-20T15:11:49.931Z,80.96
2022-09-20T15:14:16.825Z,81.50
2022-09-20T15:16:43.273Z,81.39
2022-09-20T15:19:09.703Z,82.36
2022-09-20T15:21:36.287Z,83.13
2022-09-20T15:24:02.668Z,85.19
2022-09-20T15:26:32.540Z,86.99
2022-09-20T15:28:59.324Z,87.08
2022-09-20T15:31:25.836Z,87.64
2022-09-20T15:33:52.570Z,88.30
2022-09-20T15:36:18.938Z,89.00
2022-09-20T15:38:45.650Z,88.93
2022-09-20T15:41:12.021Z,88.77
2022-09-20T15:43:39.856Z,89.50
2022-09-20T15:46:20.511Z,85.00
2022-09-20T15:48:46.971Z,87.33
2022-09-20T15:51:15.154Z,87.04
2022-09-20T15:53:48.585Z,86.87
2022-09-20T15:56:19.256Z,87.83
2022-09-20T15:58:48.883Z,88.00
2022-09-20T16:01:19.513Z,88.25
2022-09-20T16:03:46.617Z,87.74
2022-09-20T16:06:13.566Z,87.59
2022-09-20T16:08:42.187Z,87.12
2022-09-20T16:11:12.141Z,86.95
2022-09-20T16:13:39.134Z,87.47
2022-09-20T16:16:08.397Z,86.78
2022-09-20T16:18:55.088Z,85.80
2022-09-20T16:21:21.907Z,86.25
2022-09-20T16:23:51.408Z,85.91
2022-09-20T16:26:19.783Z,85.80
2022-09-20T16:28:47.764Z,85.54
2022-09-20T16:32:03.575Z,83.17
2022-09-20T16:34:35.230Z,82.66
2022-09-20T16:37:05.806Z,80.88
2022-09-20T16:39:32.600Z,79.40
2022-09-20T16:42:04.790Z,76.27
2022-09-20T16:44:36.321Z,71.27
2022-09-20T16:47:07.002Z,73.61
2022-09-20T16:49:35.120Z,73.29
2022-09-20T16:52:04.087Z,72.15
2022-09-20T16:54:32.142Z,72.34
2022-09-20T16:56:59.014Z,71.21
2022-09-20T16:59:25.484Z,70.97
2022-09-20T17:01:52.508Z,71.70
2022-09-20T17:04:20.139Z,72.31
2022-09-20T17:06:48.027Z,72.53
2022-09-20T17:09:15.930Z,74.13
2022-09-20T17:11:47.257Z,75.56
2022-09-20T17:14:15.010Z,77.00
2022-09-20T17:16:42.367Z,80.19
2022-09-20T17:19:13.325Z,86.02
2022-09-20T17:21:45.096Z,88.38
2022-09-20T17:24:12.104Z,91.36
2022-09-20T17:26:40.826Z,93.69
2022-09-20T17:29:10.223Z,96.58
2022-09-20T17:31:39.107Z,99.12
2022-09-20T17:34:08.458Z,100.00
2022-09-20T17:36:39.157Z,100.00
2022-09-20T17:39:06.997Z,100.00
2022-09-20T17:41:37.329Z,100.00
2022-09-20T17:44:08.180Z,100.00
2022-09-20T17:46:37.046Z,100.00
2022-09-20T17:49:06.853Z,100.00
2022-09-20T17:51:36.952Z,100.00
2022-09-20T17:54:03.866Z,100.00
2022-09-20T17:56:31.217Z,100.00
2022-09-20T17:58:59.013Z,100.00
2022-09-20T18:01:27.255Z,100.00
2022-09-20T18:03:56.171Z,100.00
2022-09-20T18:06:28.604Z,100.00
2022-09-20T18:09:02.831Z,100.00
2022-09-20T18:11:31.835Z,100.00
2022-09-20T18:13:59.561Z,100.00
2022-09-20T18:16:26.429Z,100.00
2022-09-20T18:18:53.284Z,100.00
2022-09-20T18:21:24.641Z,100.00
2022-09-20T18:23:52.323Z,100.00
2022-09-20T18:26:24.191Z,100.00
2022-09-20T18:28:54.931Z,100.00
2022-09-20T18:31:22.753Z,100.00
2022-09-20T18:33:52.553Z,100.00
2022-09-20T18:36:18.943Z,100.00
2022-09-20T18:38:49.515Z,100.00
2022-09-20T18:41:16.528Z,100.00
2022-09-20T18:43:46.373Z,100.00
2022-09-20T18:46:13.511Z,100.00
2022-09-20T18:48:40.179Z,100.00
2022-09-20T18:51:08.897Z,100.00
2022-09-20T18:53:37.455Z,100.00
2022-09-20T18:56:20.653Z,100.00
2022-09-20T18:58:47.427Z,100.00
2022-09-20T19:01:53.338Z,100.00
2022-09-20T19:04:54.439Z,100.00
2022-09-20T19:07:26.909Z,100.00
2022-09-20T19:09:59.630Z,100.00
2022-09-20T19:12:34.013Z,100.00
2022-09-20T19:15:19.871Z,100.00
2022-09-20T19:18:04.332Z,100.00
2022-09-20T19:20:54.278Z,100.00
2022-09-20T19:23:45.133Z,100.00
2022-09-20T19:26:22.345Z,100.00
2022-09-20T19:28:50.511Z,100.00
2022-09-20T19:31:26.554Z,100.00
2022-09-20T19:33:55.418Z,100.00
2022-09-20T19:36:23.627Z,100.00
2022-09-20T19:39:16.962Z,100.00
2022-09-20T19:41:53.143Z,100.00
2022-09-20T19:44:43.888Z,100.00
2022-09-20T19:47:16.441Z,100.00
2022-09-20T19:49:55.166Z,100.00
2022-09-20T19:52:23.513Z,100.00
2022-09-20T19:54:51.189Z,100.00
2022-09-20T19:57:22.883Z,100.00
2022-09-20T19:59:50.916Z,100.00
2022-09-20T20:02:18.211Z,100.00
2022-09-20T20:04:44.977Z,100.00
2022-09-20T20:07:28.288Z,100.00
2022-09-20T20:10:06.466Z,100.00
2022-09-20T20:13:25.029Z,100.00
2022-09-20T20:16:00.590Z,100.00
2022-09-20T20:18:45.032Z,100.00
2022-09-20T20:21:21.268Z,100.00
2022-09-20T20:23:53.641Z,100.00
2022-09-20T20:26:23.375Z,100.00
2022-09-20T20:28:51.660Z,100.00
2022-09-20T20:31:19.580Z,100.00
2022-09-20T20:33:46.004Z,100.00
2022-09-20T20:36:12.419Z,100.00
2022-09-20T20:38:40.313Z,100.00
2022-09-20T20:41:12.450Z,100.00
2022-09-20T20:43:41.388Z,100.00
2022-09-20T20:46:12.264Z,100.00
2022-09-20T20:48:38.684Z,100.00
2022-09-20T20:51:09.468Z,100.00
2022-09-20T20:53:40.769Z,100.00
2022-09-20T20:56:12.809Z,100.00
2022-09-20T20:58:41.149Z,100.00
2022-09-20T21:01:10.312Z,100.00
2022-09-20T21:03:37.206Z,100.00
2022-09-20T21:06:06.892Z,100.00
2022-09-20T21:08:36.013Z,100.00
2022-09-20T21:11:05.545Z,100.00
2022-09-20T21:13:32.943Z,100.00
2022-09-20T21:16:22.882Z,100.00
2022-09-20T21:18:50.313Z,100.00
2022-09-20T21:21:25.807Z,100.00
2022-09-20T21:23:54.482Z,100.00
2022-09-20T21:26:22.217Z,100.00
2022-09-20T21:28:53.834Z,100.00
2022-09-20T21:31:22.407Z,100.00
2022-09-20T21:33:49.373Z,100.00
2022-09-20T21:36:18.497Z,100.00
2022-09-20T21:38:45.536Z,100.00
2022-09-20T21:41:13.251Z,100.00
2022-09-20T21:43:42.781Z,100.00
2022-09-20T21:46:14.693Z,100.00
2022-09-20T21:48:41.425Z,100.00
2022-09-20T21:51:10.698Z,100.00
2022-09-20T21:53:38.464Z,100.00
2022-09-20T21:56:07.253Z,100.00
2022-09-20T21:58:34.635Z,100.00
2022-09-20T22:01:04.011Z,100.00
2022-09-20T22:03:32.765Z,100.00
2022-09-20T22:06:12.317Z,100.00
2022-09-20T22:08:49.836Z,100.00
2022-09-20T22:11:17.552Z,100.00
2022-09-20T22:13:46.596Z,100.00
2022-09-20T22:16:18.895Z,100.00
2022-09-20T22:18:46.802Z,100.00
2022-09-20T22:21:16.903Z,100.00
2022-09-20T22:23:44.102Z,100.00
2022-09-20T22:26:13.916Z,100.00
2022-09-20T22:28:41.376Z,100.00
2022-09-20T22:31:07.776Z,100.00
2022-09-20T22:33:35.984Z,100.00
2022-09-20T22:36:02.572Z,100.00
2022-09-20T22:38:30.147Z,100.00
2022-09-20T22:40:58.022Z,100.00
2022-09-20T22:43:24.665Z,100.00
2022-09-20T22:45:51.338Z,100.00
2022-09-20T22:48:17.786Z,100.00
2022-09-20T22:50:44.285Z,100.00
2022-09-20T22:53:10.742Z,100.00
2022-09-20T22:55:37.460Z,100.00
2022-09-20T22:58:03.936Z,100.00
2022-09-20T23:00:30.290Z,100.00
2022-09-20T23:02:58.848Z,100.00
2022-09-20T23:05:26.747Z,100.00
2022-09-20T23:07:53.134Z,100.00
2022-09-20T23:10:19.516Z,100.00
2022-09-20T23:12:50.327Z,100.00
2022-09-20T23:15:16.812Z,100.00
2022-09-20T23:17:43.167Z,100.00
2022-09-20T23:20:09.647Z,100.00
2022-09-20T23:22:36.082Z,100.00
2022-09-20T23:25:02.431Z,100.00
2022-09-20T23:27:28.820Z,100.00
2022-09-20T23:29:55.178Z,100.00
2022-09-20T23:32:21.615Z,100.00
2022-09-20T23:34:48.670Z,100.00
2022-09-20T23:37:15.101Z,100.00
2022-09-20T23:39:41.736Z,100.00
2022-09-20T23:42:08.109Z,100.00
2022-09-20T23:44:34.462Z,100.00
2022-09-20T23:47:00.872Z,100.00
2022-09-20T23:49:27.549Z,100.00
2022-09-20T23:51:53.974Z,100.00
2022-09-20T23:54:20.439Z,100.00
2022-09-20T23:56:47.579Z,100.00
2022-09-20T23:59:13.929Z,100.00
